sensor_id;sensor_type;location;lat;lon;timestamp;pressure;altitude;pressure_sealevel;temperature;humidity
30724;BME280;17473;52.286;20.930;2023-03-16T00:02:05;100471.78;;;3.84;61.70
30724;BME280;17473;52.286;20.930;2023-03-16T00:04:33;100460.94;;;3.78;61.75
30724;BME280;17473;52.286;20.930;2023-03-16T00:07:08;100475.31;;;3.71;62.17
30724;BME280;17473;52.286;20.930;2023-03-16T00:09:37;100470.91;;;3.70;61.96
30724;BME280;17473;52.286;20.930;2023-03-16T00:12:15;100488.75;;;3.77;61.75
30724;BME280;17473;52.286;20.930;2023-03-16T00:14:45;100473.94;;;3.76;61.82
30724;BME280;17473;52.286;20.930;2023-03-16T00:17:16;100484.19;;;3.59;62.08
30724;BME280;17473;52.286;20.930;2023-03-16T00:19:52;100475.09;;;3.53;62.31
30724;BME280;17473;52.286;20.930;2023-03-16T00:22:27;100485.53;;;3.53;62.38
30724;BME280;17473;52.286;20.930;2023-03-16T00:24:55;100498.38;;;3.50;62.24
30724;BME280;17473;52.286;20.930;2023-03-16T00:27:24;100495.06;;;3.52;62.30
30724;BME280;17473;52.286;20.930;2023-03-16T00:29:53;100491.97;;;3.31;62.39
30724;BME280;17473;52.286;20.930;2023-03-16T00:32:27;100503.91;;;3.41;62.29
30724;BME280;17473;52.286;20.930;2023-03-16T00:34:55;100504.09;;;3.44;62.36
30724;BME280;17473;52.286;20.930;2023-03-16T00:37:24;100504.91;;;3.43;62.33
30724;BME280;17473;52.286;20.930;2023-03-16T00:39:53;100501.00;;;3.36;62.56
30724;BME280;17473;52.286;20.930;2023-03-16T00:42:28;100502.31;;;3.29;62.59
30724;BME280;17473;52.286;20.930;2023-03-16T00:44:57;100503.13;;;3.28;62.76
30724;BME280;17473;52.286;20.930;2023-03-16T00:47:28;100498.31;;;3.21;62.76
30724;BME280;17473;52.286;20.930;2023-03-16T00:49:56;100511.16;;;3.32;62.81
30724;BME280;17473;52.286;20.930;2023-03-16T00:52:24;100508.94;;;3.38;62.42
30724;BME280;17473;52.286;20.930;2023-03-16T00:54:54;100505.41;;;3.37;62.42
30724;BME280;17473;52.286;20.930;2023-03-16T00:57:24;100506.53;;;3.27;62.54
30724;BME280;17473;52.286;20.930;2023-03-16T00:59:51;100497.91;;;3.15;62.72
30724;BME280;17473;52.286;20.930;2023-03-16T01:02:19;100504.91;;;3.16;63.02
30724;BME280;17473;52.286;20.930;2023-03-16T01:04:51;100503.63;;;3.23;62.86
30724;BME280;17473;52.286;20.930;2023-03-16T01:07:20;100501.81;;;3.22;62.75
30724;BME280;17473;52.286;20.930;2023-03-16T01:09:47;100506.94;;;3.20;62.75
30724;BME280;17473;52.286;20.930;2023-03-16T01:12:17;100499.91;;;3.19;62.76
30724;BME280;17473;52.286;20.930;2023-03-16T01:14:45;100506.66;;;3.16;62.62
30724;BME280;17473;52.286;20.930;2023-03-16T01:17:14;100507.06;;;3.08;63.04
30724;BME280;17473;52.286;20.930;2023-03-16T01:19:43;100509.03;;;3.12;63.00
30724;BME280;17473;52.286;20.930;2023-03-16T01:22:11;100509.66;;;3.08;63.00
30724;BME280;17473;52.286;20.930;2023-03-16T01:24:39;100513.56;;;3.15;63.06
30724;BME280;17473;52.286;20.930;2023-03-16T01:27:07;100512.44;;;3.11;62.93
30724;BME280;17473;52.286;20.930;2023-03-16T01:29:36;100517.56;;;3.10;63.04
30724;BME280;17473;52.286;20.930;2023-03-16T01:32:04;100515.97;;;2.98;63.13
30724;BME280;17473;52.286;20.930;2023-03-16T01:34:32;100519.38;;;2.97;63.21
30724;BME280;17473;52.286;20.930;2023-03-16T01:37:00;100530.81;;;3.00;63.44
30724;BME280;17473;52.286;20.930;2023-03-16T01:39:27;100526.22;;;2.95;63.37
30724;BME280;17473;52.286;20.930;2023-03-16T01:41:54;100525.38;;;2.96;63.47
30724;BME280;17473;52.286;20.930;2023-03-16T01:44:24;100534.63;;;2.91;63.14
30724;BME280;17473;52.286;20.930;2023-03-16T01:46:56;100533.28;;;2.85;63.70
30724;BME280;17473;52.286;20.930;2023-03-16T01:49:34;100537.00;;;2.88;63.44
30724;BME280;17473;52.286;20.930;2023-03-16T01:52:20;100532.81;;;2.77;63.62
30724;BME280;17473;52.286;20.930;2023-03-16T01:54:59;100534.19;;;2.72;63.95
30724;BME280;17473;52.286;20.930;2023-03-16T01:57:30;100526.25;;;2.70;63.62
30724;BME280;17473;52.286;20.930;2023-03-16T02:00:17;100538.19;;;2.80;63.52
30724;BME280;17473;52.286;20.930;2023-03-16T02:02:54;100526.47;;;2.73;63.61
30724;BME280;17473;52.286;20.930;2023-03-16T02:08:21;100527.91;;;2.81;63.63
30724;BME280;17473;52.286;20.930;2023-03-16T02:10:49;100532.09;;;2.79;63.61
30724;BME280;17473;52.286;20.930;2023-03-16T02:13:22;100526.34;;;2.72;63.72
30724;BME280;17473;52.286;20.930;2023-03-16T02:15:51;100539.50;;;2.73;63.41
30724;BME280;17473;52.286;20.930;2023-03-16T02:18:19;100543.09;;;2.75;63.69
30724;BME280;17473;52.286;20.930;2023-03-16T02:23:37;100541.19;;;2.73;63.59
30724;BME280;17473;52.286;20.930;2023-03-16T02:26:28;100545.63;;;2.74;63.40
30724;BME280;17473;52.286;20.930;2023-03-16T02:32:05;100545.31;;;2.69;63.54
30724;BME280;17473;52.286;20.930;2023-03-16T02:34:33;100541.50;;;2.64;63.72
30724;BME280;17473;52.286;20.930;2023-03-16T02:37:01;100540.66;;;2.65;63.56
30724;BME280;17473;52.286;20.930;2023-03-16T02:39:29;100555.53;;;2.66;63.41
30724;BME280;17473;52.286;20.930;2023-03-16T02:41:56;100549.91;;;2.60;63.42
30724;BME280;17473;52.286;20.930;2023-03-16T02:44:35;100562.41;;;2.52;63.83
30724;BME280;17473;52.286;20.930;2023-03-16T02:47:08;100559.91;;;2.54;64.02
30724;BME280;17473;52.286;20.930;2023-03-16T02:49:39;100568.63;;;2.54;63.82
30724;BME280;17473;52.286;20.930;2023-03-16T02:52:08;100568.06;;;2.58;63.84
30724;BME280;17473;52.286;20.930;2023-03-16T02:54:35;100573.03;;;2.55;64.12
30724;BME280;17473;52.286;20.930;2023-03-16T02:57:03;100574.13;;;2.45;64.18
30724;BME280;17473;52.286;20.930;2023-03-16T02:59:31;100577.47;;;2.56;64.03
30724;BME280;17473;52.286;20.930;2023-03-16T03:01:58;100574.94;;;2.58;63.86
30724;BME280;17473;52.286;20.930;2023-03-16T03:04:25;100573.84;;;2.54;64.07
30724;BME280;17473;52.286;20.930;2023-03-16T03:06:52;100585.66;;;2.49;64.15
30724;BME280;17473;52.286;20.930;2023-03-16T03:09:19;100584.75;;;2.48;64.08
30724;BME280;17473;52.286;20.930;2023-03-16T03:11:46;100587.31;;;2.35;64.86
30724;BME280;17473;52.286;20.930;2023-03-16T03:14:13;100588.09;;;2.34;65.10
30724;BME280;17473;52.286;20.930;2023-03-16T03:16:42;100586.19;;;2.31;65.37
30724;BME280;17473;52.286;20.930;2023-03-16T03:19:12;100581.22;;;2.23;65.62
30724;BME280;17473;52.286;20.930;2023-03-16T03:21:40;100593.88;;;2.30;65.22
30724;BME280;17473;52.286;20.930;2023-03-16T03:24:08;100593.09;;;2.31;65.64
30724;BME280;17473;52.286;20.930;2023-03-16T03:26:36;100595.28;;;2.25;65.95
30724;BME280;17473;52.286;20.930;2023-03-16T03:29:06;100605.59;;;2.23;66.07
30724;BME280;17473;52.286;20.930;2023-03-16T03:31:34;100606.59;;;2.25;65.97
30724;BME280;17473;52.286;20.930;2023-03-16T03:34:01;100610.00;;;2.24;66.13
30724;BME280;17473;52.286;20.930;2023-03-16T03:36:33;100603.66;;;2.21;66.11
30724;BME280;17473;52.286;20.930;2023-03-16T03:39:01;100607.09;;;2.19;66.53
30724;BME280;17473;52.286;20.930;2023-03-16T03:41:32;100614.22;;;2.22;66.67
30724;BME280;17473;52.286;20.930;2023-03-16T03:43:59;100613.97;;;2.19;66.56
30724;BME280;17473;52.286;20.930;2023-03-16T03:46:26;100616.59;;;2.19;66.66
30724;BME280;17473;52.286;20.930;2023-03-16T03:48:54;100616.50;;;2.17;66.80
30724;BME280;17473;52.286;20.930;2023-03-16T03:51:21;100614.44;;;2.13;66.97
30724;BME280;17473;52.286;20.930;2023-03-16T03:53:48;100626.22;;;2.20;66.71
30724;BME280;17473;52.286;20.930;2023-03-16T03:56:15;100622.41;;;2.15;67.18
30724;BME280;17473;52.286;20.930;2023-03-16T03:58:42;100633.00;;;2.18;67.13
30724;BME280;17473;52.286;20.930;2023-03-16T04:01:09;100634.59;;;2.16;67.12
30724;BME280;17473;52.286;20.930;2023-03-16T04:03:36;100622.41;;;2.15;67.25
30724;BME280;17473;52.286;20.930;2023-03-16T04:06:04;100633.59;;;2.14;67.55
30724;BME280;17473;52.286;20.930;2023-03-16T04:08:34;100633.25;;;2.21;67.10
30724;BME280;17473;52.286;20.930;2023-03-16T04:11:01;100633.00;;;2.18;67.13
30724;BME280;17473;52.286;20.930;2023-03-16T04:13:28;100635.19;;;2.12;67.57
30724;BME280;17473;52.286;20.930;2023-03-16T04:15:57;100635.88;;;2.09;67.76
30724;BME280;17473;52.286;20.930;2023-03-16T04:18:25;100637.22;;;2.16;67.33
30724;BME280;17473;52.286;20.930;2023-03-16T04:20:52;100644.38;;;2.18;67.45
30724;BME280;17473;52.286;20.930;2023-03-16T04:23:20;100644.50;;;2.08;67.75
30724;BME280;17473;52.286;20.930;2023-03-16T04:25:47;100649.56;;;2.07;68.02
30724;BME280;17473;52.286;20.930;2023-03-16T04:28:14;100638.81;;;2.02;67.99
30724;BME280;17473;52.286;20.930;2023-03-16T04:30:43;100648.44;;;2.03;68.25
30724;BME280;17473;52.286;20.930;2023-03-16T04:33:10;100644.25;;;2.05;68.22
30724;BME280;17473;52.286;20.930;2023-03-16T04:35:37;100643.69;;;2.09;68.32
30724;BME280;17473;52.286;20.930;2023-03-16T04:38:05;100641.28;;;2.12;68.07
30724;BME280;17473;52.286;20.930;2023-03-16T04:40:32;100649.69;;;2.08;68.05
30724;BME280;17473;52.286;20.930;2023-03-16T04:42:59;100647.78;;;2.06;68.64
30724;BME280;17473;52.286;20.930;2023-03-16T04:45:26;100649.81;;;1.98;68.62
30724;BME280;17473;52.286;20.930;2023-03-16T04:47:53;100655.81;;;1.97;68.96
30724;BME280;17473;52.286;20.930;2023-03-16T04:50:20;100656.06;;;2.00;69.06
30724;BME280;17473;52.286;20.930;2023-03-16T04:52:48;100659.78;;;2.03;68.88
30724;BME280;17473;52.286;20.930;2023-03-16T04:55:16;100661.59;;;2.05;69.03
30724;BME280;17473;52.286;20.930;2023-03-16T04:57:43;100671.44;;;2.09;69.26
30724;BME280;17473;52.286;20.930;2023-03-16T05:00:11;100669.28;;;2.15;68.81
30724;BME280;17473;52.286;20.930;2023-03-16T05:02:50;100677.78;;;2.12;69.20
30724;BME280;17473;52.286;20.930;2023-03-16T05:05:20;100680.72;;;2.17;69.36
30724;BME280;17473;52.286;20.930;2023-03-16T05:07:48;100675.72;;;2.20;69.39
30724;BME280;17473;52.286;20.930;2023-03-16T05:10:17;100683.19;;;2.27;69.18
30724;BME280;17473;52.286;20.930;2023-03-16T05:12:45;100685.44;;;2.34;69.15
30724;BME280;17473;52.286;20.930;2023-03-16T05:15:12;100683.38;;;2.42;68.82
30724;BME280;17473;52.286;20.930;2023-03-16T05:17:41;100682.22;;;3.01;67.72
30724;BME280;17473;52.286;20.930;2023-03-16T05:20:12;100687.09;;;4.84;62.63
30724;BME280;17473;52.286;20.930;2023-03-16T05:22:44;100675.16;;;6.39;57.01
30724;BME280;17473;52.286;20.930;2023-03-16T05:25:13;100665.84;;;7.63;53.17
30724;BME280;17473;52.286;20.930;2023-03-16T05:27:42;100674.22;;;8.65;50.48
30724;BME280;17473;52.286;20.930;2023-03-16T05:30:12;100666.16;;;9.61;47.48
30724;BME280;17473;52.286;20.930;2023-03-16T05:32:39;100675.44;;;10.60;45.22
30724;BME280;17473;52.286;20.930;2023-03-16T05:35:07;100673.16;;;11.44;43.49
30724;BME280;17473;52.286;20.930;2023-03-16T05:37:35;100679.38;;;12.25;41.58
30724;BME280;17473;52.286;20.930;2023-03-16T05:40:06;100663.09;;;13.01;40.07
30724;BME280;17473;52.286;20.930;2023-03-16T05:42:49;100673.41;;;13.89;38.44
30724;BME280;17473;52.286;20.930;2023-03-16T05:45:16;100678.09;;;14.38;37.08
30724;BME280;17473;52.286;20.930;2023-03-16T05:47:43;100672.50;;;15.08;36.06
30724;BME280;17473;52.286;20.930;2023-03-16T05:50:12;100670.75;;;15.56;34.88
30724;BME280;17473;52.286;20.930;2023-03-16T05:52:40;100672.25;;;15.89;33.82
30724;BME280;17473;52.286;20.930;2023-03-16T05:55:08;100672.31;;;16.54;33.02
30724;BME280;17473;52.286;20.930;2023-03-16T05:57:35;100678.56;;;17.24;31.83
30724;BME280;17473;52.286;20.930;2023-03-16T06:00:05;100677.59;;;18.08;30.90
30724;BME280;17473;52.286;20.930;2023-03-16T06:02:45;100680.50;;;18.42;30.06
30724;BME280;17473;52.286;20.930;2023-03-16T06:05:17;100679.88;;;18.92;29.32
30724;BME280;17473;52.286;20.930;2023-03-16T06:07:44;100685.25;;;17.71;29.94
30724;BME280;17473;52.286;20.930;2023-03-16T06:10:13;100686.47;;;16.50;31.64
30724;BME280;17473;52.286;20.930;2023-03-16T06:12:40;100683.56;;;15.77;32.68
30724;BME280;17473;52.286;20.930;2023-03-16T06:15:09;100680.50;;;15.56;33.06
30724;BME280;17473;52.286;20.930;2023-03-16T06:17:38;100694.81;;;14.72;34.21
30724;BME280;17473;52.286;20.930;2023-03-16T06:20:08;100690.22;;;13.55;36.18
30724;BME280;17473;52.286;20.930;2023-03-16T06:22:39;100696.00;;;12.21;38.33
30724;BME280;17473;52.286;20.930;2023-03-16T06:25:08;100702.56;;;12.61;38.19
30724;BME280;17473;52.286;20.930;2023-03-16T06:27:36;100687.38;;;15.90;33.51
30724;BME280;17473;52.286;20.930;2023-03-16T06:30:08;100692.84;;;18.26;30.16
30724;BME280;17473;52.286;20.930;2023-03-16T06:32:38;100692.53;;;19.42;28.29
30724;BME280;17473;52.286;20.930;2023-03-16T06:35:09;100697.91;;;20.61;26.88
30724;BME280;17473;52.286;20.930;2023-03-16T06:37:36;100684.22;;;21.31;25.50
30724;BME280;17473;52.286;20.930;2023-03-16T06:40:04;100689.13;;;22.03;25.04
30724;BME280;17473;52.286;20.930;2023-03-16T06:42:32;100688.72;;;22.50;24.48
30724;BME280;17473;52.286;20.930;2023-03-16T06:44:59;100691.81;;;22.89;23.99
30724;BME280;17473;52.286;20.930;2023-03-16T06:47:26;100688.00;;;23.71;22.83
30724;BME280;17473;52.286;20.930;2023-03-16T06:49:53;100692.13;;;23.97;22.38
30724;BME280;17473;52.286;20.930;2023-03-16T06:52:21;100697.88;;;24.29;22.04
30724;BME280;17473;52.286;20.930;2023-03-16T06:54:48;100698.88;;;24.73;21.80
30724;BME280;17473;52.286;20.930;2023-03-16T06:57:16;100696.25;;;25.12;21.21
30724;BME280;17473;52.286;20.930;2023-03-16T06:59:43;100694.75;;;25.79;20.44
30724;BME280;17473;52.286;20.930;2023-03-16T07:02:13;100700.75;;;26.28;20.40
30724;BME280;17473;52.286;20.930;2023-03-16T07:04:41;100703.75;;;26.52;19.91
30724;BME280;17473;52.286;20.930;2023-03-16T07:07:09;100709.28;;;27.12;19.25
30724;BME280;17473;52.286;20.930;2023-03-16T07:09:37;100718.72;;;26.98;19.17
30724;BME280;17473;52.286;20.930;2023-03-16T07:12:08;100722.38;;;27.57;18.82
30724;BME280;17473;52.286;20.930;2023-03-16T07:14:36;100719.25;;;27.98;18.68
30724;BME280;17473;52.286;20.930;2023-03-16T07:17:03;100717.97;;;28.10;18.32
30724;BME280;17473;52.286;20.930;2023-03-16T07:19:30;100722.16;;;28.20;18.46
30724;BME280;17473;52.286;20.930;2023-03-16T07:21:58;100728.22;;;28.54;18.29
30724;BME280;17473;52.286;20.930;2023-03-16T07:24:25;100718.81;;;28.64;17.78
30724;BME280;17473;52.286;20.930;2023-03-16T07:26:52;100723.53;;;28.84;17.52
30724;BME280;17473;52.286;20.930;2023-03-16T07:29:19;100719.41;;;28.98;17.37
30724;BME280;17473;52.286;20.930;2023-03-16T07:31:46;100723.56;;;28.57;18.03
30724;BME280;17473;52.286;20.930;2023-03-16T07:34:14;100720.38;;;28.70;17.76
30724;BME280;17473;52.286;20.930;2023-03-16T07:36:41;100722.00;;;29.01;17.90
30724;BME280;17473;52.286;20.930;2023-03-16T07:39:08;100715.59;;;29.73;17.38
30724;BME280;17473;52.286;20.930;2023-03-16T07:41:35;100718.41;;;29.94;17.13
30724;BME280;17473;52.286;20.930;2023-03-16T07:44:02;100722.47;;;29.82;16.84
30724;BME280;17473;52.286;20.930;2023-03-16T07:46:30;100727.69;;;28.95;17.98
30724;BME280;17473;52.286;20.930;2023-03-16T07:48:58;100731.59;;;29.11;17.82
30724;BME280;17473;52.286;20.930;2023-03-16T07:51:25;100734.91;;;28.70;17.95
30724;BME280;17473;52.286;20.930;2023-03-16T07:53:52;100730.03;;;28.28;17.90
30724;BME280;17473;52.286;20.930;2023-03-16T07:56:20;100728.00;;;27.51;18.60
30724;BME280;17473;52.286;20.930;2023-03-16T07:58:47;100729.56;;;27.28;19.29
30724;BME280;17473;52.286;20.930;2023-03-16T08:01:14;100731.44;;;27.56;19.15
30724;BME280;17473;52.286;20.930;2023-03-16T08:03:41;100734.00;;;26.99;19.37
30724;BME280;17473;52.286;20.930;2023-03-16T08:06:08;100720.31;;;27.06;19.08
30724;BME280;17473;52.286;20.930;2023-03-16T08:08:36;100720.78;;;26.89;19.77
30724;BME280;17473;52.286;20.930;2023-03-16T08:11:03;100725.59;;;26.44;19.68
30724;BME280;17473;52.286;20.930;2023-03-16T08:13:30;100728.09;;;25.80;20.34
30724;BME280;17473;52.286;20.930;2023-03-16T08:15:57;100731.63;;;25.83;20.31
30724;BME280;17473;52.286;20.930;2023-03-16T08:18:29;100732.34;;;24.61;21.27
30724;BME280;17473;52.286;20.930;2023-03-16T08:20:57;100738.59;;;25.12;21.39
30724;BME280;17473;52.286;20.930;2023-03-16T08:23:24;100732.09;;;25.21;20.90
30724;BME280;17473;52.286;20.930;2023-03-16T08:25:56;100740.84;;;25.32;21.00
30724;BME280;17473;52.286;20.930;2023-03-16T08:28:23;100729.00;;;25.39;20.80
30724;BME280;17473;52.286;20.930;2023-03-16T08:30:52;100734.53;;;25.33;20.77
30724;BME280;17473;52.286;20.930;2023-03-16T08:33:21;100739.56;;;25.09;20.92
30724;BME280;17473;52.286;20.930;2023-03-16T08:35:49;100734.91;;;24.71;21.48
30724;BME280;17473;52.286;20.930;2023-03-16T08:38:17;100744.19;;;25.03;20.98
30724;BME280;17473;52.286;20.930;2023-03-16T08:40:45;100737.38;;;24.83;21.44
30724;BME280;17473;52.286;20.930;2023-03-16T08:43:16;100746.47;;;24.77;21.41
30724;BME280;17473;52.286;20.930;2023-03-16T08:45:45;100750.53;;;25.00;21.39
30724;BME280;17473;52.286;20.930;2023-03-16T08:48:12;100752.22;;;24.57;21.49
30724;BME280;17473;52.286;20.930;2023-03-16T08:50:41;100758.72;;;24.95;21.71
30724;BME280;17473;52.286;20.930;2023-03-16T08:53:11;100758.59;;;25.02;21.28
30724;BME280;17473;52.286;20.930;2023-03-16T08:55:40;100753.09;;;24.58;21.60
30724;BME280;17473;52.286;20.930;2023-03-16T08:58:08;100752.78;;;25.22;21.08
30724;BME280;17473;52.286;20.930;2023-03-16T09:00:36;100759.88;;;24.82;21.06
30724;BME280;17473;52.286;20.930;2023-03-16T09:03:05;100760.63;;;24.90;21.15
30724;BME280;17473;52.286;20.930;2023-03-16T09:05:32;100761.69;;;25.27;20.97
30724;BME280;17473;52.286;20.930;2023-03-16T09:07:59;100760.16;;;25.57;20.36
30724;BME280;17473;52.286;20.930;2023-03-16T09:10:27;100758.13;;;25.67;20.28
30724;BME280;17473;52.286;20.930;2023-03-16T09:12:54;100754.41;;;25.30;20.52
30724;BME280;17473;52.286;20.930;2023-03-16T09:15:22;100751.59;;;25.35;20.60
30724;BME280;17473;52.286;20.930;2023-03-16T09:17:49;100756.94;;;25.79;20.44
30724;BME280;17473;52.286;20.930;2023-03-16T09:20:17;100753.94;;;25.54;20.46
30724;BME280;17473;52.286;20.930;2023-03-16T09:23:00;100760.22;;;25.54;20.33
30724;BME280;17473;52.286;20.930;2023-03-16T09:25:27;100759.09;;;25.65;19.88
30724;BME280;17473;52.286;20.930;2023-03-16T09:27:55;100756.47;;;25.99;19.97
30724;BME280;17473;52.286;20.930;2023-03-16T09:30:22;100766.13;;;25.29;20.15
30724;BME280;17473;52.286;20.930;2023-03-16T09:32:49;100754.63;;;24.24;21.20
30724;BME280;17473;52.286;20.930;2023-03-16T09:35:16;100759.00;;;23.72;21.99
30724;BME280;17473;52.286;20.930;2023-03-16T09:37:43;100760.94;;;23.62;21.95
30724;BME280;17473;52.286;20.930;2023-03-16T09:40:31;100758.75;;;23.87;21.59
30724;BME280;17473;52.286;20.930;2023-03-16T09:46:33;100754.66;;;24.73;21.12
30724;BME280;17473;52.286;20.930;2023-03-16T09:49:02;100750.44;;;24.56;20.96
30724;BME280;17473;52.286;20.930;2023-03-16T09:55:05;100764.50;;;24.77;20.64
30724;BME280;17473;52.286;20.930;2023-03-16T09:57:36;100758.91;;;24.86;20.89
30724;BME280;17473;52.286;20.930;2023-03-16T10:00:30;100762.59;;;25.26;20.76
30724;BME280;17473;52.286;20.930;2023-03-16T10:05:35;100767.84;;;24.90;20.55
30724;BME280;17473;52.286;20.930;2023-03-16T10:08:20;100767.91;;;24.87;21.17
30724;BME280;17473;52.286;20.930;2023-03-16T10:13:46;100756.97;;;23.24;21.81
30724;BME280;17473;52.286;20.930;2023-03-16T10:19:18;100763.00;;;22.63;22.75
30724;BME280;17473;52.286;20.930;2023-03-16T10:21:45;100767.09;;;21.97;22.73
30724;BME280;17473;52.286;20.930;2023-03-16T10:26:56;100773.00;;;20.84;23.64
30724;BME280;17473;52.286;20.930;2023-03-16T10:29:34;100778.38;;;19.96;24.62
30724;BME280;17473;52.286;20.930;2023-03-16T10:32:14;100780.88;;;19.40;25.19
30724;BME280;17473;52.286;20.930;2023-03-16T10:34:56;100783.22;;;18.78;25.88
30724;BME280;17473;52.286;20.930;2023-03-16T10:37:25;100775.56;;;18.12;26.71
30724;BME280;17473;52.286;20.930;2023-03-16T10:39:55;100782.28;;;17.71;27.42
30724;BME280;17473;52.286;20.930;2023-03-16T10:42:23;100783.25;;;17.78;27.34
30724;BME280;17473;52.286;20.930;2023-03-16T10:44:57;100770.75;;;17.74;27.25
30724;BME280;17473;52.286;20.930;2023-03-16T10:47:31;100774.81;;;18.25;27.50
30724;BME280;17473;52.286;20.930;2023-03-16T10:50:12;100784.00;;;18.61;26.73
30724;BME280;17473;52.286;20.930;2023-03-16T10:52:44;100783.47;;;17.96;27.01
30724;BME280;17473;52.286;20.930;2023-03-16T10:55:23;100788.41;;;17.61;26.97
30724;BME280;17473;52.286;20.930;2023-03-16T10:57:54;100778.72;;;17.71;26.87
30724;BME280;17473;52.286;20.930;2023-03-16T11:00:29;100781.97;;;18.26;26.44
30724;BME280;17473;52.286;20.930;2023-03-16T11:03:00;100778.25;;;18.10;26.55
30724;BME280;17473;52.286;20.930;2023-03-16T11:05:38;100779.69;;;17.77;26.21
30724;BME280;17473;52.286;20.930;2023-03-16T11:08:12;100776.91;;;17.68;26.02
30724;BME280;17473;52.286;20.930;2023-03-16T11:10:44;100785.53;;;17.44;25.73
30724;BME280;17473;52.286;20.930;2023-03-16T11:13:33;100780.97;;;17.33;25.21
30724;BME280;17473;52.286;20.930;2023-03-16T11:16:22;100779.22;;;17.35;25.29
30724;BME280;17473;52.286;20.930;2023-03-16T11:18:59;100786.97;;;17.15;25.51
30724;BME280;17473;52.286;20.930;2023-03-16T11:22:16;100780.66;;;17.10;25.63
30724;BME280;17473;52.286;20.930;2023-03-16T11:25:26;100786.81;;;16.46;26.53
30724;BME280;17473;52.286;20.930;2023-03-16T11:30:55;100786.81;;;16.46;27.13
30724;BME280;17473;52.286;20.930;2023-03-16T11:33:29;100787.38;;;15.77;28.74
30724;BME280;17473;52.286;20.930;2023-03-16T11:39:10;100786.19;;;15.61;29.48
30724;BME280;17473;52.286;20.930;2023-03-16T11:44:53;100790.09;;;15.34;30.68
30724;BME280;17473;52.286;20.930;2023-03-16T11:50:43;100787.72;;;15.07;31.38
30724;BME280;17473;52.286;20.930;2023-03-16T12:02:09;100792.91;;;14.63;31.66
30724;BME280;17473;52.286;20.930;2023-03-16T12:05:27;100802.09;;;14.39;31.76
30724;BME280;17473;52.286;20.930;2023-03-16T12:14:22;100799.44;;;14.04;32.48
30724;BME280;17473;52.286;20.930;2023-03-16T12:22:56;100803.13;;;13.77;33.04
30724;BME280;17473;52.286;20.930;2023-03-16T12:25:38;100806.81;;;13.82;32.77
30724;BME280;17473;52.286;20.930;2023-03-16T12:28:25;100795.22;;;13.78;32.71
30724;BME280;17473;52.286;20.930;2023-03-16T12:31:12;100813.78;;;13.78;32.83
30724;BME280;17473;52.286;20.930;2023-03-16T12:36:57;100803.53;;;13.92;32.98
30724;BME280;17473;52.286;20.930;2023-03-16T12:43:04;100811.13;;;13.78;33.45
30724;BME280;17473;52.286;20.930;2023-03-16T12:46:08;100804.34;;;13.88;33.53
30724;BME280;17473;52.286;20.930;2023-03-16T12:48:48;100808.16;;;14.00;33.37
30724;BME280;17473;52.286;20.930;2023-03-16T12:51:18;100814.16;;;13.92;33.50
30724;BME280;17473;52.286;20.930;2023-03-16T12:53:53;100816.00;;;13.61;34.02
30724;BME280;17473;52.286;20.930;2023-03-16T12:56:42;100813.25;;;13.58;34.11
30724;BME280;17473;52.286;20.930;2023-03-16T12:59:18;100815.22;;;13.67;33.92
30724;BME280;17473;52.286;20.930;2023-03-16T13:02:00;100820.63;;;13.70;33.54
30724;BME280;17473;52.286;20.930;2023-03-16T13:04:38;100818.41;;;13.54;33.26
30724;BME280;17473;52.286;20.930;2023-03-16T13:07:20;100821.41;;;13.36;33.49
30724;BME280;17473;52.286;20.930;2023-03-16T13:10:06;100817.72;;;13.30;33.59
30724;BME280;17473;52.286;20.930;2023-03-16T13:12:37;100822.75;;;13.21;33.67
30724;BME280;17473;52.286;20.930;2023-03-16T13:18:02;100818.00;;;13.11;34.23
30724;BME280;17473;52.286;20.930;2023-03-16T13:20:48;100822.88;;;13.26;34.29
30724;BME280;17473;52.286;20.930;2023-03-16T13:26:21;100817.38;;;12.89;35.16
30724;BME280;17473;52.286;20.930;2023-03-16T13:28:54;100817.97;;;12.80;35.33
30724;BME280;17473;52.286;20.930;2023-03-16T13:31:31;100821.53;;;12.81;35.54
30724;BME280;17473;52.286;20.930;2023-03-16T13:34:02;100825.91;;;12.80;35.61
30724;BME280;17473;52.286;20.930;2023-03-16T13:36:33;100814.31;;;12.77;35.84
30724;BME280;17473;52.286;20.930;2023-03-16T13:39:21;100816.81;;;12.72;35.63
30724;BME280;17473;52.286;20.930;2023-03-16T13:42:19;100813.66;;;12.84;35.37
30724;BME280;17473;52.286;20.930;2023-03-16T13:44:46;100814.84;;;12.65;35.74
30724;BME280;17473;52.286;20.930;2023-03-16T13:47:16;100828.97;;;12.65;35.60
30724;BME280;17473;52.286;20.930;2023-03-16T13:49:53;100819.88;;;12.84;35.44
30724;BME280;17473;52.286;20.930;2023-03-16T13:52:29;100825.34;;;12.91;35.35
30724;BME280;17473;52.286;20.930;2023-03-16T13:54:59;100827.75;;;12.83;35.43
30724;BME280;17473;52.286;20.930;2023-03-16T13:57:31;100822.16;;;12.74;35.67
30724;BME280;17473;52.286;20.930;2023-03-16T14:00:24;100818.88;;;12.81;35.40
30724;BME280;17473;52.286;20.930;2023-03-16T14:03:10;100823.28;;;12.82;35.34
30724;BME280;17473;52.286;20.930;2023-03-16T14:05:40;100829.09;;;12.70;35.81
30724;BME280;17473;52.286;20.930;2023-03-16T14:08:20;100814.84;;;12.65;35.38
30724;BME280;17473;52.286;20.930;2023-03-16T14:10:50;100829.06;;;12.68;35.66
30724;BME280;17473;52.286;20.930;2023-03-16T14:16:12;100832.13;;;12.53;35.62
30724;BME280;17473;52.286;20.930;2023-03-16T14:19:04;100824.03;;;12.49;35.56
30724;BME280;17473;52.286;20.930;2023-03-16T14:21:32;100826.75;;;12.50;35.32